Time;durP1;ratioP1;P1;durP2;ratioP2;P2;SDS_P1;SDS_P2;PMS_P1;PMS_P2;Temp;Humidity;BMP_temperature;BMP_pressure;BME280_temperature;BME280_humidity;BME280_pressure;Samples;Min_cycle;Max_cycle;Signal;HPM_P1;HPM_P2
2023/08/02 00:00:06;;;;;;;;;;;;;;;21.26;100.00;98855.59;108776;1250;72402;-62
2023/08/02 00:02:43;;;;;;;3.80;3.40;;;;;;;21.21;100.00;98858.02;108696;1249;69395;-63
2023/08/02 00:05:10;;;;;;;3.10;2.90;;;;;;;21.18;100.00;98852.95;108675;1251;72607;-63
2023/08/02 00:07:38;;;;;;;3.60;3.30;;;;;;;21.17;100.00;98854.98;108674;1250;61590;-62
2023/08/02 00:10:06;;;;;;;3.10;2.90;;;;;;;21.17;100.00;98845.53;108693;1250;59761;-64
2023/08/02 00:12:33;;;;;;;3.00;2.80;;;;;;;21.18;100.00;98843.90;108649;1251;73694;-62
2023/08/02 00:15:01;;;;;;;3.50;3.30;;;;;;;21.20;100.00;98845.65;108654;1250;69067;-62
2023/08/02 00:17:29;;;;;;;3.60;3.20;;;;;;;21.20;100.00;98842.64;108622;1250;73342;-66
2023/08/02 00:19:56;;;;;;;;;;;;;;;21.17;100.00;98845.92;108714;1251;61370;-63
2023/08/02 00:22:24;;;;;;;;;;;;;;;21.14;100.00;98843.88;108612;1251;59764;-65
2023/08/02 00:24:51;;;;;;;;;;;;;;;21.11;100.00;98846.50;108642;1249;73688;-65
2023/08/02 00:27:19;;;;;;;3.20;3.00;;;;;;;21.08;100.00;98856.96;108527;1250;69118;-63
2023/08/02 00:29:46;;;;;;;3.40;3.10;;;;;;;21.05;100.00;98856.03;108564;1251;72436;-63
2023/08/02 00:32:18;;;;;;;3.70;3.50;;;;;;;21.04;100.00;98857.36;108584;1250;61385;-64
2023/08/02 00:34:46;;;;;;;3.90;3.60;;;;;;;21.04;100.00;98854.78;108544;1251;58712;-65
2023/08/02 00:37:14;;;;;;;4.10;3.80;;;;;;;21.02;100.00;98852.58;108582;1250;73603;-64
2023/08/02 00:39:41;;;;;;;3.80;3.50;;;;;;;20.99;100.00;98853.77;108578;1251;69625;-64
2023/08/02 00:42:09;;;;;;;4.60;4.30;;;;;;;20.98;100.00;98852.46;108724;1250;72458;-64
2023/08/02 00:44:37;;;;;;;4.10;3.80;;;;;;;20.99;100.00;98857.14;108675;1251;61520;-63
2023/08/02 00:47:04;;;;;;;;;;;;;;;20.98;100.00;98860.27;108709;1251;60040;-65
2023/08/02 00:49:32;;;;;;;;;;;;;;;20.95;100.00;98858.40;108722;1250;74280;-65
2023/08/02 00:52:00;;;;;;;;;;;;;;;20.93;100.00;98851.86;108610;1250;68464;-65
2023/08/02 00:54:27;;;;;;;7.10;3.70;;;;;;;20.91;100.00;98852.05;108697;1250;71573;-65
2023/08/02 00:56:55;;;;;;;6.90;3.90;;;;;;;20.89;100.00;98852.26;108574;1249;60231;-64
2023/08/02 00:59:22;;;;;;;;;;;;;;;20.90;100.00;98849.48;108705;1251;59664;-65
2023/08/02 01:01:50;;;;;;;4.50;4.20;;;;;;;20.89;100.00;98848.48;108710;1249;74004;-65
2023/08/02 01:04:18;;;;;;;4.60;4.20;;;;;;;20.88;100.00;98846.13;108741;1250;69139;-66
2023/08/02 01:06:49;;;;;;;4.40;4.10;;;;;;;20.86;100.00;98846.15;108657;1251;71608;-64
2023/08/02 01:09:22;;;;;;;4.50;4.10;;;;;;;20.84;100.00;98845.32;108555;1251;61342;-65
2023/08/02 01:12:11;;;;;;;4.10;3.90;;;;;;;20.82;100.00;98848.67;108612;1249;60091;-64
2023/08/02 01:14:45;;;;;;;3.80;3.60;;;;;;;20.80;100.00;98850.63;108630;1251;72907;-66
2023/08/02 01:17:24;;;;;;;4.10;3.80;;;;;;;20.78;100.00;98850.48;108390;1251;69918;-66
2023/08/02 01:20:01;;;;;;;4.00;3.80;;;;;;;20.75;100.00;98855.08;108713;1250;72469;-65
2023/08/02 01:22:28;;;;;;;4.20;3.90;;;;;;;20.75;100.00;98853.11;108609;1251;61791;-65
2023/08/02 01:25:00;;;;;;;4.20;3.90;;;;;;;20.76;100.00;98850.55;108634;1250;59803;-64
2023/08/02 01:27:33;;;;;;;3.80;3.60;;;;;;;20.76;100.00;98846.62;108540;1250;73558;-66
2023/08/02 01:30:01;;;;;;;5.80;4.10;;;;;;;20.75;100.00;98847.42;108628;1251;69212;-66
2023/08/02 01:32:29;;;;;;;;;;;;;;;20.75;100.00;98846.27;108450;1251;72441;-67
2023/08/02 01:34:57;;;;;;;3.80;3.60;;;;;;;20.74;100.00;98841.29;108512;1251;61564;-67
2023/08/02 01:37:24;;;;;;;5.30;3.90;;;;;;;20.72;100.00;98843.09;108591;1250;60671;-66
2023/08/02 01:39:52;;;;;;;5.20;3.90;;;;;;;20.72;100.00;98840.73;108621;1251;73764;-66
2023/08/02 01:42:20;;;;;;;4.20;4.00;;;;;;;20.71;100.00;98840.00;108641;1251;69581;-67
2023/08/02 01:44:47;;;;;;;;;;;;;;;20.69;100.00;98837.35;108687;1250;72456;-66
2023/08/02 01:47:17;;;;;;;4.10;3.80;;;;;;;20.68;100.00;98841.02;108653;1251;61783;-66
2023/08/02 01:49:45;;;;;;;3.70;3.50;;;;;;;20.65;100.00;98838.04;108498;1251;59669;-67
2023/08/02 01:52:12;;;;;;;4.40;4.00;;;;;;;20.65;100.00;98841.10;108639;1250;75714;-67
2023/08/02 01:54:40;;;;;;;4.20;3.90;;;;;;;20.63;100.00;98838.24;108499;1251;69027;-68
2023/08/02 01:57:07;;;;;;;3.70;3.50;;;;;;;20.62;100.00;98838.67;108522;1251;72899;-67
2023/08/02 01:59:35;;;;;;;3.60;3.40;;;;;;;20.62;100.00;98843.15;108532;1251;61395;-67
2023/08/02 02:02:03;;;;;;;;;;;;;;;20.63;100.00;98840.59;108458;1250;59913;-67
2023/08/02 02:04:30;;;;;;;;;;;;;;;20.60;100.00;98837.02;108637;1249;73688;-67
2023/08/02 02:07:00;;;;;;;3.70;3.50;;;;;;;20.58;100.00;98835.46;108606;1250;69174;-67
2023/08/02 02:09:27;;;;;;;4.10;3.70;;;;;;;20.55;100.00;98834.13;108675;1250;73369;-67
2023/08/02 02:11:55;;;;;;;4.70;4.30;;;;;;;20.53;100.00;98835.20;108638;1251;61657;-67
2023/08/02 02:14:22;;;;;;;4.10;3.90;;;;;;;20.51;100.00;98832.20;108663;1250;61807;-67
2023/08/02 02:16:50;;;;;;;4.70;4.30;;;;;;;20.53;100.00;98835.77;108678;1251;73481;-67
2023/08/02 02:19:18;;;;;;;4.50;4.10;;;;;;;20.53;100.00;98837.97;108575;1250;69016;-67
2023/08/02 02:21:47;;;;;;;6.40;4.90;;;;;;;20.50;100.00;98839.80;108658;1251;72733;-67
2023/08/02 02:24:15;;;;;;;5.50;5.10;;;;;;;20.49;100.00;98839.73;108633;1251;61765;-67
2023/08/02 02:26:42;;;;;;;5.20;4.70;;;;;;;20.51;100.00;98835.31;108598;1251;59723;-66
2023/08/02 02:29:12;;;;;;;6.80;4.90;;;;;;;20.49;100.00;98842.56;108510;1250;73646;-67
2023/08/02 02:31:40;;;;;;;5.60;5.20;;;;;;;20.46;100.00;98846.41;108414;1251;68681;-67
2023/08/02 02:34:07;;;;;;;;;;;;;;;20.44;100.00;98849.14;108535;1251;72318;-67
2023/08/02 02:36:35;;;;;;;5.90;5.40;;;;;;;20.40;100.00;98853.40;108565;1251;61936;-66
2023/08/02 02:39:02;;;;;;;5.40;5.10;;;;;;;20.37;100.00;98849.92;108377;1251;59748;-66
2023/08/02 02:41:32;;;;;;;5.10;4.80;;;;;;;20.37;100.00;98850.80;108426;1251;74300;-66
2023/08/02 02:44:00;;;;;;;5.40;5.10;;;;;;;20.38;100.00;98851.13;108684;1249;68998;-66
2023/08/02 02:46:28;;;;;;;5.50;4.90;;;;;;;20.40;100.00;98852.39;108647;1251;71970;-66
2023/08/02 02:48:55;;;;;;;4.90;4.60;;;;;;;20.42;100.00;98855.36;108641;1251;61806;-67
2023/08/02 02:51:23;;;;;;;4.90;4.30;;;;;;;20.44;100.00;98854.48;108666;1250;60885;-67
2023/08/02 02:53:50;;;;;;;4.40;4.00;;;;;;;20.44;100.00;98852.31;108676;1250;72719;-66
2023/08/02 02:56:18;;;;;;;4.70;4.30;;;;;;;20.45;100.00;98847.79;108493;1251;68542;-68
2023/08/02 02:58:46;;;;;;;;;;;;;;;20.43;100.00;98842.83;108641;1251;73338;-67
2023/08/02 03:01:14;;;;;;;;;;;;;;;20.40;100.00;98847.70;108678;1251;61774;-67
2023/08/02 03:03:42;;;;;;;4.50;4.20;;;;;;;20.38;100.00;98845.20;108647;1250;59454;-67
2023/08/02 03:06:09;;;;;;;4.60;4.20;;;;;;;20.40;100.00;98848.96;108641;1251;73905;-67
2023/08/02 03:08:37;;;;;;;4.90;4.40;;;;;;;20.42;100.00;98847.35;108635;1251;69073;-68
2023/08/02 03:11:05;;;;;;;5.00;4.60;;;;;;;20.43;100.00;98847.96;108647;1251;72344;-67
2023/08/02 03:13:32;;;;;;;;;;;;;;;20.46;100.00;98848.77;108685;1250;61678;-67
2023/08/02 03:16:00;;;;;;;4.50;4.20;;;;;;;20.47;100.00;98850.64;108721;1249;59668;-67
2023/08/02 03:18:27;;;;;;;4.50;4.10;;;;;;;20.48;100.00;98849.80;108690;1250;72945;-67
2023/08/02 03:20:55;;;;;;;4.80;4.50;;;;;;;20.50;100.00;98849.11;108660;1250;69021;-67
2023/08/02 03:23:23;;;;;;;4.60;4.30;;;;;;;20.52;100.00;98854.95;108645;1251;72378;-68
2023/08/02 03:25:50;;;;;;;6.70;5.30;;;;;;;20.55;100.00;98854.42;108643;1250;61755;-64
2023/08/02 03:28:18;;;;;;;5.10;4.70;;;;;;;20.60;100.00;98856.98;108567;1251;59112;-66
2023/08/02 03:30:45;;;;;;;5.90;4.40;;;;;;;20.63;100.00;98857.48;108526;1250;73637;-68
2023/08/02 03:33:13;;;;;;;5.70;4.50;;;;;;;20.66;100.00;98851.70;108320;1249;69769;-68
2023/08/02 03:35:40;;;;;;;5.00;4.60;;;;;;;20.70;100.00;98850.21;108514;1249;72971;-68
2023/08/02 03:38:08;;;;;;;6.20;5.60;;;;;;;20.75;100.00;98850.94;108570;1251;61634;-68
2023/08/02 03:40:36;;;;;;;6.10;5.50;;;;;;;20.81;100.00;98852.14;108581;1250;60028;-68
2023/08/02 03:43:03;;;;;;;8.10;6.60;;;;;;;20.87;100.00;98856.77;108643;1250;73658;-68
2023/08/02 03:45:31;;;;;;;14.80;8.00;;;;;;;20.91;100.00;98855.77;108717;1249;69299;-61
2023/08/02 03:47:58;;;;;;;;;;;;;;;20.98;100.00;98849.81;108659;1252;72806;-62
2023/08/02 03:50:29;;;;;;;;;;;;;;;21.04;100.00;98848.16;108619;1251;61772;-62
2023/08/02 03:55:15;;;;;;;6.80;6.20;;;;;;;20.73;100.00;98845.99;101954;1292;614970;-61
2023/08/02 03:57:42;;;;;;;7.50;6.80;;;;;;;21.10;100.00;98844.19;106612;1265;57348;-61
2023/08/02 04:00:09;;;;;;;6.10;5.60;;;;;;;21.20;100.00;98846.35;105066;1265;59072;-59
2023/08/02 04:02:39;;;;;;;8.20;5.70;;;;;;;21.27;100.00;98844.38;103900;1266;72895;-58
2023/08/02 04:05:06;;;;;;;7.20;6.70;;;;;;;21.33;100.00;98846.10;103663;1270;70124;-58
2023/08/02 04:07:32;;;;;;;7.30;6.80;;;;;;;21.42;100.00;98848.98;103579;1266;236077;-60
2023/08/02 04:09:59;;;;;;;7.10;6.50;;;;;;;21.47;100.00;98845.98;104328;1265;61541;-61
2023/08/02 04:12:26;;;;;;;8.60;7.20;;;;;;;21.53;100.00;98844.84;103925;1279;60137;-60
2023/08/02 04:14:54;;;;;;;7.80;7.10;;;;;;;21.58;100.00;98840.21;104017;1268;71918;-61
2023/08/02 04:17:20;;;;;;;;;;;;;;;21.63;100.00;98835.67;104098;1264;69211;-61
2023/08/02 04:19:47;;;;;;;6.70;6.10;;;;;;;21.66;100.00;98836.09;103917;1264;73025;-61
2023/08/02 04:22:14;;;;;;;6.80;6.30;;;;;;;21.69;100.00;98828.32;104060;1265;61651;-61
2023/08/02 04:24:41;;;;;;;7.70;6.10;;;;;;;21.74;100.00;98829.77;103998;1264;60153;-60
2023/08/02 04:27:07;;;;;;;7.40;6.80;;;;;;;21.82;100.00;98826.59;103983;1264;73168;-63
2023/08/02 04:29:34;;;;;;;7.00;6.40;;;;;;;21.88;100.00;98825.95;107000;1263;68140;-63
2023/08/02 04:32:01;;;;;;;7.20;6.70;;;;;;;21.94;100.00;98828.05;105692;1264;73033;-63
2023/08/02 04:34:28;;;;;;;6.70;6.10;;;;;;;22.03;100.00;98831.79;104561;1263;61558;-62
2023/08/02 04:36:55;;;;;;;7.60;6.30;;;;;;;22.08;100.00;98832.45;104022;1279;59864;-63
2023/08/02 04:39:21;;;;;;;6.30;5.90;;;;;;;22.17;100.00;98830.88;104170;1264;72899;-62
2023/08/02 04:41:54;;;;;;;6.10;5.60;;;;;;;22.22;100.00;98828.70;103955;1265;70124;-63
2023/08/02 04:44:21;;;;;;;6.70;6.10;;;;;;;22.28;100.00;98826.91;103957;1264;73436;-62
2023/08/02 04:46:48;;;;;;;7.10;6.50;;;;;;;22.31;100.00;98824.79;103996;1272;61898;-62
2023/08/02 04:49:15;;;;;;;8.20;7.40;;;;;;;22.35;100.00;98823.07;103888;1275;60863;-62
2023/08/02 04:51:42;;;;;;;9.10;8.20;;;;;;;22.40;100.00;98825.06;103891;1265;73336;-62
2023/08/02 04:54:08;;;;;;;8.00;7.40;;;;;;;22.44;100.00;98821.45;103987;1264;70328;-62
2023/08/02 04:56:35;;;;;;;7.70;7.10;;;;;;;22.48;100.00;98815.09;103935;1267;73073;-63
2023/08/02 04:59:02;;;;;;;7.90;7.20;;;;;;;22.54;100.00;98814.71;103876;1264;61401;-62
2023/08/02 05:01:29;;;;;;;7.50;6.80;;;;;;;22.62;100.00;98811.15;104227;1271;60070;-63
2023/08/02 05:03:58;;;;;;;7.60;6.70;;;;;;;22.70;100.00;98805.67;104139;1267;73408;-63
2023/08/02 05:06:25;;;;;;;8.00;7.20;;;;;;;22.80;100.00;98803.48;104194;1265;69151;-63
2023/08/02 05:08:51;;;;;;;8.80;6.70;;;;;;;22.90;100.00;98804.23;104178;1267;71158;-62
2023/08/02 05:11:19;;;;;;;6.50;6.00;;;;;;;22.98;100.00;98803.74;104116;1263;61779;-63
2023/08/02 05:13:45;;;;;;;7.50;7.00;;;;;;;23.05;100.00;98804.21;103974;1264;59773;-64
2023/08/02 05:16:13;;;;;;;6.80;6.20;;;;;;;23.13;100.00;98806.38;104348;1260;72903;-63
2023/08/02 05:18:40;;;;;;;7.20;6.70;;;;;;;23.24;100.00;98802.59;104815;1257;70322;-62
2023/08/02 05:21:13;;;;;;;28.50;8.90;;;;;;;23.32;100.00;98800.08;104441;1259;73122;-64
2023/08/02 05:23:40;;;;;;;11.50;6.60;;;;;;;23.41;100.00;98804.84;104340;1257;61413;-61
2023/08/02 05:26:07;;;;;;;8.60;6.80;;;;;;;23.49;100.00;98803.36;104240;1259;60012;-62
2023/08/02 05:28:34;;;;;;;7.10;6.40;;;;;;;23.60;100.00;98801.27;106012;1255;71653;-61
2023/08/02 05:31:01;;;;;;;6.90;6.30;;;;;;;23.71;100.00;98798.34;108096;1255;69659;-59
2023/08/02 05:33:28;;;;;;;7.30;6.70;;;;;;;23.84;100.00;98799.55;105977;1255;72131;-58
2023/08/02 05:35:55;;;;;;;7.30;6.70;;;;;;;23.96;100.00;98796.09;104427;1258;61852;-61
2023/08/02 05:38:21;;;;;;;7.60;6.60;;;;;;;24.12;100.00;98795.40;104863;1255;59507;-61
2023/08/02 05:40:48;;;;;;;7.40;6.80;;;;;;;24.22;100.00;98789.02;104419;1262;74642;-62
2023/08/02 05:43:15;;;;;;;7.60;7.00;;;;;;;24.31;100.00;98782.31;104493;1256;70193;-61
2023/08/02 05:45:42;;;;;;;7.00;6.50;;;;;;;24.40;100.00;98781.86;104610;1270;71281;-61
2023/08/02 05:48:09;;;;;;;7.20;6.50;;;;;;;24.50;100.00;98779.94;104508;1262;62544;-60
2023/08/02 05:50:36;;;;;;;6.30;5.90;;;;;;;24.62;100.00;98775.77;104808;1256;60005;-60
2023/08/02 05:53:02;;;;;;;7.00;6.40;;;;;;;24.76;100.00;98770.93;104672;1266;71978;-60
2023/08/02 05:55:29;;;;;;;8.40;6.90;;;;;;;24.88;100.00;98772.41;104332;1269;69726;-60
2023/08/02 05:57:56;;;;;;;6.60;6.10;;;;;;;25.01;100.00;98771.80;104306;1262;73029;-60
2023/08/02 06:00:23;;;;;;;6.60;6.00;;;;;;;25.09;100.00;98772.58;104276;1272;62081;-59
2023/08/02 06:02:50;;;;;;;7.00;6.40;;;;;;;25.20;100.00;98769.24;107285;1256;60170;-59
2023/08/02 06:05:17;;;;;;;7.10;6.40;;;;;;;25.33;100.00;98765.19;104747;1256;72084;-59
2023/08/02 06:07:43;;;;;;;6.10;5.70;;;;;;;25.46;100.00;98765.94;105258;1255;69440;-59
2023/08/02 06:10:10;;;;;;;6.30;5.80;;;;;;;25.58;100.00;98765.66;104755;1255;72169;-59
2023/08/02 06:12:37;;;;;;;6.20;5.80;;;;;;;25.69;100.00;98765.41;105201;1256;62271;-59
2023/08/02 06:15:04;;;;;;;6.30;5.70;;;;;;;25.78;100.00;98757.52;104609;1259;60167;-61
2023/08/02 06:17:32;;;;;;;6.00;5.60;;;;;;;25.86;100.00;98758.13;104451;1259;73031;-59
2023/08/02 06:19:59;;;;;;;5.90;5.50;;;;;;;25.94;100.00;98758.05;104463;1256;70227;-60
2023/08/02 06:22:26;;;;;;;5.80;5.30;;;;;;;26.02;100.00;98757.47;104748;1256;73536;-61
2023/08/02 06:24:53;;;;;;;5.90;5.50;;;;;;;26.11;100.00;98754.06;104637;1259;61726;-60
2023/08/02 06:27:19;;;;;;;5.80;5.30;;;;;;;26.20;100.00;98752.10;106252;1256;61323;-59
2023/08/02 06:29:46;;;;;;;7.10;6.50;;;;;;;26.27;100.00;98756.00;107115;1255;71829;-60
2023/08/02 06:32:13;;;;;;;6.20;5.70;;;;;;;26.36;100.00;98753.33;107998;1255;68871;-60
2023/08/02 06:34:39;;;;;;;5.30;5.00;;;;;;;26.44;100.00;98753.83;104939;1256;59795;-60
2023/08/02 06:37:06;;;;;;;5.40;5.00;;;;;;;26.52;100.00;98754.48;104481;1255;61712;-60
2023/08/02 06:39:33;;;;;;;5.60;5.20;;;;;;;26.61;100.00;98754.63;105076;1255;59666;-60
2023/08/02 06:42:00;;;;;;;5.40;5.10;;;;;;;26.72;100.00;98754.98;104667;1254;71750;-61
2023/08/02 06:44:27;;;;;;;6.30;5.20;;;;;;;26.84;100.00;98748.73;104570;1256;69020;-59
2023/08/02 06:46:53;;;;;;;5.20;4.90;;;;;;;26.94;100.00;98749.83;104384;1265;71274;-60
2023/08/02 06:49:20;;;;;;;5.40;4.90;;;;;;;27.02;100.00;98745.85;104336;1260;62597;-59
2023/08/02 06:51:47;;;;;;;5.00;4.60;;;;;;;27.15;100.00;98744.30;104261;1267;59989;-59
2023/08/02 06:54:14;;;;;;;8.10;4.60;;;;;;;27.24;100.00;98737.41;104528;1256;71834;-59
2023/08/02 06:56:41;;;;;;;4.50;4.20;;;;;;;27.28;100.00;98738.75;104452;1267;69931;-59
2023/08/02 06:59:08;;;;;;;5.30;4.90;;;;;;;27.30;100.00;98738.06;104576;1259;72138;-59
2023/08/02 07:01:35;;;;;;;5.10;4.80;;;;;;;27.36;100.00;98735.29;104326;1255;61519;-62
2023/08/02 07:04:02;;;;;;;5.10;4.70;;;;;;;27.42;100.00;98735.62;104736;1256;59647;-61
2023/08/02 07:06:29;;;;;;;4.90;4.40;;;;;;;27.47;100.00;98734.79;104721;1262;73734;-63
2023/08/02 07:08:56;;;;;;;4.50;4.20;;;;;;;27.52;100.00;98738.30;104630;1256;69309;-59
2023/08/02 07:11:23;;;;;;;4.90;4.60;;;;;;;27.56;100.00;98736.14;104426;1259;73255;-60
2023/08/02 07:14:03;;;;;;;5.30;4.90;;;;;;;27.66;100.00;98736.94;104856;1259;61412;-59
2023/08/02 07:16:30;;;;;;;4.80;4.40;;;;;;;27.77;100.00;98731.37;104699;1256;59999;-60
2023/08/02 09:01:07;;;;;;;3.40;3.10;;;;;;;29.39;100.00;98688.34;104119;1260;75133;-58
2023/08/02 09:03:35;;;;;;;3.50;3.20;;;;;;;29.43;100.00;98685.92;104272;1257;70338;-58
2023/08/02 09:06:03;;;;;;;4.10;3.10;;;;;;;29.47;100.00;98679.95;104265;1263;72462;-59
2023/08/02 09:08:41;;;;;;;3.10;2.90;;;;;;;29.54;100.00;98673.89;104212;1270;61806;-59
2023/08/02 09:11:11;;;;;;;4.20;3.30;;;;;;;29.62;100.00;98667.84;104236;1273;59799;-60
2023/08/02 09:13:40;;;;;;;3.40;3.20;;;;;;;29.67;100.00;98672.33;104205;1259;73537;-59
2023/08/02 09:16:08;;;;;;;3.30;3.00;;;;;;;29.75;100.00;98670.73;104277;1259;69439;-59
2023/08/02 09:18:47;;;;;;;3.40;3.00;;;;;;;29.77;100.00;98665.53;104135;1279;73112;-59
2023/08/02 09:21:21;;;;;;;4.80;3.20;;;;;;;29.74;100.00;98665.65;104248;1264;61526;-59
2023/08/02 09:24:00;;;;;;;4.50;3.10;;;;;;;29.73;100.00;98666.07;104197;1257;60469;-59
2023/08/02 09:26:27;;;;;;;3.50;3.00;;;;;;;29.68;100.00;98671.85;104313;1257;73420;-59
2023/08/02 09:29:00;;;;;;;3.10;2.80;;;;;;;29.63;100.00;98662.91;104326;1261;69265;-58
2023/08/02 09:31:31;;;;;;;3.30;2.90;;;;;;;29.67;100.00;98663.23;106503;1254;72958;-59
2023/08/02 09:33:58;;;;;;;3.00;2.80;;;;;;;29.71;100.00;98657.67;104835;1266;61261;-58
2023/08/02 09:36:29;;;;;;;3.00;2.80;;;;;;;29.70;100.00;98651.89;104416;1272;60475;-59
2023/08/02 09:39:15;;;;;;;3.70;3.40;;;;;;;29.72;100.00;98649.14;104539;1254;72880;-59
2023/08/02 09:41:44;;;;;;;5.10;3.30;;;;;;;29.81;100.00;98647.34;104396;1254;69228;-58
2023/08/02 09:44:26;;;;;;;3.20;3.00;;;;;;;29.94;100.00;98639.48;104285;1270;73125;-58
2023/08/02 09:46:53;;;;;;;5.20;3.20;;;;;;;30.07;100.00;98635.34;104319;1257;60001;-58
2023/08/02 09:49:20;;;;;;;2.70;2.50;;;;;;;30.15;100.00;98635.77;104347;1259;60725;-59
2023/08/02 09:51:47;;;;;;;;;;;;;;;30.18;100.00;98637.53;104304;1269;72208;-59
2023/08/02 09:54:14;;;;;;;3.20;2.30;;;;;;;30.16;100.00;98631.17;104333;1254;69946;-60
2023/08/02 09:56:41;;;;;;;3.10;2.90;;;;;;;30.13;100.00;98631.59;104322;1254;72775;-60
2023/08/02 09:59:11;;;;;;;3.50;3.30;;;;;;;30.15;100.00;98632.39;104312;1259;60625;-60
2023/08/02 10:01:38;;;;;;;3.50;3.00;;;;;;;30.20;100.00;98628.44;104246;1261;59947;-59
2023/08/02 10:04:09;;;;;;;3.40;3.10;;;;;;;30.29;100.00;98623.95;104287;1254;74063;-60
2023/08/02 10:06:55;;;;;;;;;;;;;;;30.30;100.00;98620.03;104438;1257;69682;-59
2023/08/02 10:09:31;;;;;;;2.90;2.70;;;;;;;30.30;100.00;98612.48;104455;1254;73024;-59
2023/08/02 10:12:16;;;;;;;3.40;3.20;;;;;;;30.34;100.00;98610.23;108035;1254;60224;-59
2023/08/02 10:14:47;;;;;;;3.40;3.10;;;;;;;30.44;100.00;98609.96;104652;1254;60697;-60
2023/08/02 10:17:14;;;;;;;2.90;2.70;;;;;;;30.47;100.00;98606.27;104296;1257;74348;-59
2023/08/02 10:19:41;;;;;;;2.80;2.60;;;;;;;30.51;100.00;98601.14;104427;1254;69996;-59
2023/08/02 10:22:12;;;;;;;2.90;2.70;;;;;;;30.66;100.00;98599.15;104298;1254;72771;-59
2023/08/02 10:24:39;;;;;;;3.10;2.90;;;;;;;30.82;100.00;98597.89;104371;1269;60566;-59
2023/08/02 10:27:11;;;;;;;3.20;2.80;;;;;;;30.92;100.00;98589.73;104343;1270;60845;-60
2023/08/02 10:29:41;;;;;;;2.80;2.60;;;;;;;31.01;100.00;98591.08;104324;1257;74096;-59
2023/08/02 10:32:13;;;;;;;3.80;2.70;;;;;;;31.15;100.00;98588.13;104240;1267;70078;-59
2023/08/02 10:34:46;;;;;;;3.00;2.70;;;;;;;31.28;97.36;98592.10;104798;1257;72229;-59
2023/08/02 10:37:25;;;;;;;3.80;2.50;;;;;;;31.25;97.21;98581.59;104280;1263;60559;-59
2023/08/02 10:39:54;;;;;;;3.00;2.80;;;;;;;31.25;97.57;98579.75;104368;1270;60572;-59
2023/08/02 10:42:29;;;;;;;2.80;2.60;;;;;;;31.30;96.41;98575.40;104347;1257;74195;-59
2023/08/02 10:45:01;;;;;;;2.70;2.50;;;;;;;31.37;99.83;98572.19;104390;1254;69153;-59
2023/08/02 10:47:30;;;;;;;2.70;2.50;;;;;;;31.39;97.43;98564.52;104303;1257;73388;-58
2023/08/02 10:50:00;;;;;;;2.40;2.20;;;;;;;31.37;99.48;98562.62;104364;1270;60565;-59
2023/08/02 10:52:29;;;;;;;2.80;2.60;;;;;;;31.35;99.01;98559.30;104397;1254;60518;-60
2023/08/02 10:55:03;;;;;;;2.60;2.40;;;;;;;31.36;99.51;98553.61;104331;1270;74350;-59
2023/08/02 10:57:37;;;;;;;2.50;2.30;;;;;;;31.36;94.97;98551.90;104368;1256;70285;-60
2023/08/02 11:00:17;;;;;;;2.40;2.20;;;;;;;31.34;93.52;98547.95;104369;1258;72109;-61
2023/08/02 11:02:48;;;;;;;2.40;2.30;;;;;;;31.32;95.17;98542.25;104333;1272;60686;-59
2023/08/02 11:05:18;;;;;;;2.80;2.50;;;;;;;31.32;98.36;98535.49;104393;1270;60553;-59
2023/08/02 11:08:00;;;;;;;2.40;2.20;;;;;;;31.30;98.69;98531.79;104382;1260;73478;-60
2023/08/02 11:10:27;;;;;;;2.50;2.30;;;;;;;31.27;91.53;98531.91;104453;1256;70001;-60
2023/08/02 11:12:55;;;;;;;3.40;2.50;;;;;;;31.21;91.93;98530.27;105687;1256;72252;-59
2023/08/02 11:15:22;;;;;;;3.60;2.70;;;;;;;31.20;92.50;98532.96;104660;1254;60512;-60
2023/08/02 11:17:57;;;;;;;2.50;2.40;;;;;;;31.18;90.94;98530.14;104671;1254;60460;-60
2023/08/02 11:20:28;;;;;;;2.50;2.30;;;;;;;31.17;90.60;98527.27;104440;1257;74204;-61
2023/08/02 11:22:55;;;;;;;2.80;2.60;;;;;;;31.21;91.20;98527.52;104592;1257;70118;-61
2023/08/02 11:25:22;;;;;;;2.60;2.40;;;;;;;31.17;88.92;98527.39;104352;1255;73119;-60
2023/08/02 11:28:02;;;;;;;3.10;2.90;;;;;;;31.09;88.12;98519.05;104382;1254;60581;-60
2023/08/02 11:30:34;;;;;;;5.70;2.60;;;;;;;31.03;91.12;98519.16;104387;1266;60558;-60
2023/08/02 11:33:01;;;;;;;3.10;2.80;;;;;;;31.07;92.37;98517.98;104934;1257;74266;-60
2023/08/02 11:35:28;;;;;;;4.30;3.10;;;;;;;31.13;92.21;98518.54;104895;1254;69902;-61
2023/08/02 11:37:58;;;;;;;2.80;2.60;;;;;;;31.19;88.32;98515.55;104274;1259;73033;-60
2023/08/02 11:40:36;;;;;;;3.30;2.70;;;;;;;31.23;88.97;98515.75;104547;1269;60569;-61
2023/08/02 11:43:03;;;;;;;3.00;2.80;;;;;;;31.27;89.82;98517.25;104392;1270;59884;-62
2023/08/02 11:45:40;;;;;;;2.70;2.50;;;;;;;31.29;89.58;98518.83;104298;1257;74318;-60
2023/08/02 11:48:26;;;;;;;4.40;2.50;;;;;;;31.33;91.12;98512.63;104487;1257;70326;-60
2023/08/02 11:50:59;;;;;;;3.10;2.60;;;;;;;31.39;91.57;98513.27;104357;1263;73301;-59
2023/08/02 11:53:31;;;;;;;3.00;2.70;;;;;;;31.43;88.85;98515.55;104310;1258;60914;-60
2023/08/02 11:56:01;;;;;;;3.10;2.80;;;;;;;31.46;91.52;98518.80;104354;1269;60581;-60
2023/08/02 11:58:27;;;;;;;6.90;2.70;;;;;;;31.48;90.81;98520.81;104463;1269;74345;-61
2023/08/02 12:01:01;;;;;;;5.60;2.90;;;;;;;31.53;89.89;98519.55;104401;1253;70873;-60
2023/08/02 12:03:28;;;;;;;2.80;2.60;;;;;;;31.57;90.68;98518.52;104151;1254;71470;-62
2023/08/02 12:06:00;;;;;;;3.50;2.60;;;;;;;31.60;89.44;98517.45;104443;1254;60577;-60
2023/08/02 12:08:29;;;;;;;2.70;2.50;;;;;;;31.56;87.33;98518.55;104916;1254;61167;-61
2023/08/02 12:10:58;;;;;;;3.00;2.30;;;;;;;31.50;87.92;98520.17;106444;1256;73776;-60
2023/08/02 12:13:26;;;;;;;2.80;2.60;;;;;;;31.49;88.53;98516.76;108282;1253;69474;-61
2023/08/02 12:16:10;;;;;;;4.80;3.00;;;;;;;31.46;87.31;98515.40;105439;1254;72505;-60
2023/08/02 12:18:54;;;;;;;3.00;2.80;;;;;;;31.37;87.89;98513.41;104281;1272;60575;-60
2023/08/02 12:21:29;;;;;;;2.70;2.50;;;;;;;31.28;90.39;98510.02;104488;1254;60572;-61
2023/08/02 12:23:58;;;;;;;4.20;2.40;;;;;;;31.25;93.36;98510.89;104394;1259;74396;-60
2023/08/02 12:26:33;;;;;;;2.60;2.40;;;;;;;31.23;94.27;98505.02;104344;1269;70967;-61
2023/08/02 12:29:01;;;;;;;2.90;2.70;;;;;;;31.21;95.91;98505.20;104324;1254;73118;-61
2023/08/02 12:31:44;;;;;;;3.10;2.50;;;;;;;31.18;94.31;98504.23;104802;1269;60682;-60
2023/08/02 12:34:11;;;;;;;3.20;2.70;;;;;;;31.21;94.19;98506.33;107778;1253;60013;-61
2023/08/02 12:36:41;;;;;;;4.50;2.60;;;;;;;31.23;92.11;98500.83;108339;1253;73476;-61
2023/08/02 12:39:13;;;;;;;5.50;2.60;;;;;;;31.31;91.89;98497.65;108246;1253;69434;-61
2023/08/02 12:41:44;;;;;;;2.80;2.60;;;;;;;31.24;91.49;98498.33;106296;1253;71664;-61
2023/08/02 12:44:13;;;;;;;;;;;;;;;31.11;93.14;98495.34;104611;1269;60569;-61
2023/08/02 12:46:40;;;;;;;2.60;2.40;;;;;;;31.09;92.66;98495.54;104483;1253;60463;-60
2023/08/02 12:49:08;;;;;;;2.60;2.40;;;;;;;31.08;91.92;98496.60;104358;1257;74135;-60
2023/08/02 12:51:38;;;;;;;2.30;2.10;;;;;;;31.12;90.54;98489.77;104409;1257;68321;-60
2023/08/02 12:54:05;;;;;;;3.50;2.40;;;;;;;31.20;90.61;98485.71;104469;1269;72152;-60
2023/08/02 12:56:33;;;;;;;6.00;2.10;;;;;;;31.29;93.49;98486.77;104277;1254;60489;-60
2023/08/02 12:58:59;;;;;;;2.30;2.10;;;;;;;31.38;93.86;98486.45;104443;1266;60588;-60
2023/08/02 13:01:28;;;;;;;2.30;2.20;;;;;;;31.48;93.10;98478.70;104403;1259;74739;-60
2023/08/02 13:03:55;;;;;;;2.30;2.10;;;;;;;31.66;89.72;98476.70;104410;1266;69363;-59
2023/08/02 13:06:33;;;;;;;2.30;2.10;;;;;;;31.82;85.52;98471.02;104365;1270;72877;-60
2023/08/02 13:09:20;;;;;;;3.20;2.00;;;;;;;31.97;76.96;98463.52;104305;1258;60743;-59
2023/08/02 13:11:48;;;;;;;1.90;1.80;;;;;;;32.01;75.52;98457.13;104290;1255;60522;-59
2023/08/02 13:14:37;;;;;;;2.30;2.10;;;;;;;32.00;73.44;98448.55;104324;1259;74335;-59
2023/08/02 13:17:03;;;;;;;2.70;2.10;;;;;;;31.98;73.51;98445.73;104482;1254;69793;-59